sensor_id;sensor_type;location;lat;lon;timestamp;P1;durP1;ratioP1;P2;durP2;ratioP2
11514;SDS011;5814;41.936;25.556;2022-12-10T00:01:48;48.80;;;37.67;;
11514;SDS011;5814;41.936;25.556;2022-12-10T00:04:15;52.53;;;37.53;;
11514;SDS011;5814;41.936;25.556;2022-12-10T00:06:42;52.50;;;38.87;;
11514;SDS011;5814;41.936;25.556;2022-12-10T00:09:10;54.93;;;39.13;;
11514;SDS011;5814;41.936;25.556;2022-12-10T00:11:38;51.53;;;38.23;;
11514;SDS011;5814;41.936;25.556;2022-12-10T00:14:05;55.20;;;38.57;;
11514;SDS011;5814;41.936;25.556;2022-12-10T00:16:32;53.80;;;38.10;;
11514;SDS011;5814;41.936;25.556;2022-12-10T00:18:59;53.60;;;38.83;;
11514;SDS011;5814;41.936;25.556;2022-12-10T00:21:27;58.33;;;40.27;;
11514;SDS011;5814;41.936;25.556;2022-12-10T00:23:54;60.83;;;40.30;;
11514;SDS011;5814;41.936;25.556;2022-12-10T00:26:21;52.57;;;38.83;;
11514;SDS011;5814;41.936;25.556;2022-12-10T00:28:48;54.13;;;38.87;;
11514;SDS011;5814;41.936;25.556;2022-12-10T00:31:18;57.67;;;40.13;;
11514;SDS011;5814;41.936;25.556;2022-12-10T00:33:44;56.70;;;39.50;;
11514;SDS011;5814;41.936;25.556;2022-12-10T00:36:12;56.63;;;40.00;;
11514;SDS011;5814;41.936;25.556;2022-12-10T00:38:40;63.27;;;39.87;;
11514;SDS011;5814;41.936;25.556;2022-12-10T00:41:07;61.63;;;39.47;;
11514;SDS011;5814;41.936;25.556;2022-12-10T00:43:34;63.40;;;39.30;;
11514;SDS011;5814;41.936;25.556;2022-12-10T00:46:02;62.17;;;40.40;;
11514;SDS011;5814;41.936;25.556;2022-12-10T00:48:29;62.63;;;39.70;;
11514;SDS011;5814;41.936;25.556;2022-12-10T00:50:59;64.03;;;40.13;;
11514;SDS011;5814;41.936;25.556;2022-12-10T00:53:25;64.93;;;39.87;;
11514;SDS011;5814;41.936;25.556;2022-12-10T00:55:52;59.40;;;39.03;;
11514;SDS011;5814;41.936;25.556;2022-12-10T00:58:19;61.37;;;38.90;;
11514;SDS011;5814;41.936;25.556;2022-12-10T01:00:47;56.90;;;38.83;;
11514;SDS011;5814;41.936;25.556;2022-12-10T01:03:14;61.97;;;39.57;;
11514;SDS011;5814;41.936;25.556;2022-12-10T01:05:41;59.23;;;38.97;;
11514;SDS011;5814;41.936;25.556;2022-12-10T01:08:08;58.10;;;38.90;;
11514;SDS011;5814;41.936;25.556;2022-12-10T01:10:35;57.80;;;38.33;;
11514;SDS011;5814;41.936;25.556;2022-12-10T01:13:03;58.87;;;38.00;;
11514;SDS011;5814;41.936;25.556;2022-12-10T01:15:30;59.70;;;39.00;;
11514;SDS011;5814;41.936;25.556;2022-12-10T01:17:57;55.70;;;37.90;;
11514;SDS011;5814;41.936;25.556;2022-12-10T01:20:24;55.73;;;37.03;;
11514;SDS011;5814;41.936;25.556;2022-12-10T01:22:51;56.73;;;37.40;;
11514;SDS011;5814;41.936;25.556;2022-12-10T01:25:19;59.10;;;37.63;;
11514;SDS011;5814;41.936;25.556;2022-12-10T01:27:46;58.37;;;40.03;;
11514;SDS011;5814;41.936;25.556;2022-12-10T01:30:13;57.87;;;38.50;;
11514;SDS011;5814;41.936;25.556;2022-12-10T01:32:40;56.27;;;36.87;;
11514;SDS011;5814;41.936;25.556;2022-12-10T01:35:08;54.13;;;36.93;;
11514;SDS011;5814;41.936;25.556;2022-12-10T01:37:35;57.23;;;38.03;;
11514;SDS011;5814;41.936;25.556;2022-12-10T01:40:02;55.43;;;38.03;;
11514;SDS011;5814;41.936;25.556;2022-12-10T01:42:30;58.07;;;38.07;;
11514;SDS011;5814;41.936;25.556;2022-12-10T01:44:59;51.23;;;36.63;;
11514;SDS011;5814;41.936;25.556;2022-12-10T01:47:24;55.27;;;37.07;;
11514;SDS011;5814;41.936;25.556;2022-12-10T01:49:51;52.43;;;37.80;;
11514;SDS011;5814;41.936;25.556;2022-12-10T01:52:19;57.60;;;36.90;;
11514;SDS011;5814;41.936;25.556;2022-12-10T01:54:46;56.23;;;36.73;;
11514;SDS011;5814;41.936;25.556;2022-12-10T01:57:14;59.87;;;38.20;;
11514;SDS011;5814;41.936;25.556;2022-12-10T01:59:40;56.00;;;38.53;;
11514;SDS011;5814;41.936;25.556;2022-12-10T02:02:26;61.70;;;38.40;;
11514;SDS011;5814;41.936;25.556;2022-12-10T02:07:55;60.03;;;38.70;;
11514;SDS011;5814;41.936;25.556;2022-12-10T02:10:26;58.63;;;38.47;;
11514;SDS011;5814;41.936;25.556;2022-12-10T02:13:10;56.37;;;36.97;;
11514;SDS011;5814;41.936;25.556;2022-12-10T02:15:40;54.77;;;37.47;;
11514;SDS011;5814;41.936;25.556;2022-12-10T02:18:09;65.30;;;39.37;;
11514;SDS011;5814;41.936;25.556;2022-12-10T02:20:40;62.67;;;40.70;;
11514;SDS011;5814;41.936;25.556;2022-12-10T02:23:10;72.17;;;42.43;;
11514;SDS011;5814;41.936;25.556;2022-12-10T02:25:41;62.57;;;39.77;;
11514;SDS011;5814;41.936;25.556;2022-12-10T02:28:10;64.67;;;41.87;;
11514;SDS011;5814;41.936;25.556;2022-12-10T02:30:36;63.70;;;40.97;;
11514;SDS011;5814;41.936;25.556;2022-12-10T02:33:03;64.07;;;40.57;;
11514;SDS011;5814;41.936;25.556;2022-12-10T02:35:30;58.87;;;39.07;;
11514;SDS011;5814;41.936;25.556;2022-12-10T02:38:01;58.57;;;38.87;;
11514;SDS011;5814;41.936;25.556;2022-12-10T02:40:29;58.73;;;38.37;;
11514;SDS011;5814;41.936;25.556;2022-12-10T02:42:53;58.40;;;39.13;;
11514;SDS011;5814;41.936;25.556;2022-12-10T02:45:22;55.30;;;37.67;;
11514;SDS011;5814;41.936;25.556;2022-12-10T02:47:48;62.00;;;39.30;;
11514;SDS011;5814;41.936;25.556;2022-12-10T02:50:15;56.93;;;38.00;;
11514;SDS011;5814;41.936;25.556;2022-12-10T02:52:42;51.03;;;36.40;;
11514;SDS011;5814;41.936;25.556;2022-12-10T02:55:11;51.17;;;36.27;;
11514;SDS011;5814;41.936;25.556;2022-12-10T02:57:41;50.97;;;36.53;;
11514;SDS011;5814;41.936;25.556;2022-12-10T03:00:09;53.40;;;36.67;;
11514;SDS011;5814;41.936;25.556;2022-12-10T03:02:50;56.83;;;38.07;;
11514;SDS011;5814;41.936;25.556;2022-12-10T03:05:21;71.03;;;41.37;;
11514;SDS011;5814;41.936;25.556;2022-12-10T03:07:52;68.70;;;40.60;;
11514;SDS011;5814;41.936;25.556;2022-12-10T03:10:26;72.10;;;41.87;;
11514;SDS011;5814;41.936;25.556;2022-12-10T03:13:06;85.57;;;42.93;;
11514;SDS011;5814;41.936;25.556;2022-12-10T03:15:33;78.47;;;43.77;;
11514;SDS011;5814;41.936;25.556;2022-12-10T03:17:59;83.47;;;44.43;;
11514;SDS011;5814;41.936;25.556;2022-12-10T03:20:26;81.77;;;43.40;;
11514;SDS011;5814;41.936;25.556;2022-12-10T03:22:53;73.93;;;40.67;;
11514;SDS011;5814;41.936;25.556;2022-12-10T03:25:22;76.93;;;42.30;;
11514;SDS011;5814;41.936;25.556;2022-12-10T03:27:48;80.47;;;42.60;;
11514;SDS011;5814;41.936;25.556;2022-12-10T03:30:15;74.17;;;41.50;;
11514;SDS011;5814;41.936;25.556;2022-12-10T03:32:42;74.47;;;42.70;;
11514;SDS011;5814;41.936;25.556;2022-12-10T03:35:09;71.70;;;41.90;;
11514;SDS011;5814;41.936;25.556;2022-12-10T03:37:36;77.67;;;43.87;;
11514;SDS011;5814;41.936;25.556;2022-12-10T03:40:04;81.20;;;43.63;;
11514;SDS011;5814;41.936;25.556;2022-12-10T03:42:33;76.10;;;43.03;;
11514;SDS011;5814;41.936;25.556;2022-12-10T03:44:59;80.93;;;43.47;;
11514;SDS011;5814;41.936;25.556;2022-12-10T03:47:26;78.93;;;43.30;;
11514;SDS011;5814;41.936;25.556;2022-12-10T03:49:53;81.00;;;43.97;;
11514;SDS011;5814;41.936;25.556;2022-12-10T03:52:21;75.43;;;44.47;;
11514;SDS011;5814;41.936;25.556;2022-12-10T03:54:48;75.30;;;43.07;;
11514;SDS011;5814;41.936;25.556;2022-12-10T03:57:15;79.73;;;45.33;;
11514;SDS011;5814;41.936;25.556;2022-12-10T03:59:42;80.67;;;45.17;;
11514;SDS011;5814;41.936;25.556;2022-12-10T04:02:09;81.30;;;46.00;;
11514;SDS011;5814;41.936;25.556;2022-12-10T04:04:36;77.07;;;44.80;;
11514;SDS011;5814;41.936;25.556;2022-12-10T04:07:04;77.10;;;43.93;;
11514;SDS011;5814;41.936;25.556;2022-12-10T04:09:31;70.87;;;42.73;;
11514;SDS011;5814;41.936;25.556;2022-12-10T04:11:58;70.43;;;42.60;;
11514;SDS011;5814;41.936;25.556;2022-12-10T04:14:26;67.57;;;41.53;;
11514;SDS011;5814;41.936;25.556;2022-12-10T04:16:58;70.63;;;42.90;;
11514;SDS011;5814;41.936;25.556;2022-12-10T04:19:25;68.13;;;41.43;;
11514;SDS011;5814;41.936;25.556;2022-12-10T04:21:52;61.10;;;40.53;;
11514;SDS011;5814;41.936;25.556;2022-12-10T04:24:26;61.67;;;39.93;;
11514;SDS011;5814;41.936;25.556;2022-12-10T04:26:58;62.53;;;38.93;;
11514;SDS011;5814;41.936;25.556;2022-12-10T04:29:25;63.30;;;41.53;;
11514;SDS011;5814;41.936;25.556;2022-12-10T04:31:52;62.60;;;41.80;;
11514;SDS011;5814;41.936;25.556;2022-12-10T04:34:19;73.97;;;50.30;;
11514;SDS011;5814;41.936;25.556;2022-12-10T04:36:46;78.03;;;50.60;;
11514;SDS011;5814;41.936;25.556;2022-12-10T04:39:14;70.13;;;46.83;;
11514;SDS011;5814;41.936;25.556;2022-12-10T04:41:41;73.93;;;47.17;;
11514;SDS011;5814;41.936;25.556;2022-12-10T04:44:08;67.07;;;42.00;;
11514;SDS011;5814;41.936;25.556;2022-12-10T04:46:35;71.90;;;44.90;;
11514;SDS011;5814;41.936;25.556;2022-12-10T04:49:03;68.47;;;44.67;;
11514;SDS011;5814;41.936;25.556;2022-12-10T04:51:30;65.20;;;40.93;;
11514;SDS011;5814;41.936;25.556;2022-12-10T04:53:57;69.23;;;45.20;;
11514;SDS011;5814;41.936;25.556;2022-12-10T04:56:24;71.37;;;42.53;;
11514;SDS011;5814;41.936;25.556;2022-12-10T04:58:51;67.00;;;42.13;;
11514;SDS011;5814;41.936;25.556;2022-12-10T05:01:18;70.67;;;44.13;;
11514;SDS011;5814;41.936;25.556;2022-12-10T05:03:45;61.00;;;39.77;;
11514;SDS011;5814;41.936;25.556;2022-12-10T05:06:13;74.33;;;48.00;;
11514;SDS011;5814;41.936;25.556;2022-12-10T05:08:40;62.07;;;41.20;;
11514;SDS011;5814;41.936;25.556;2022-12-10T05:11:09;56.27;;;38.10;;
11514;SDS011;5814;41.936;25.556;2022-12-10T05:13:34;57.83;;;38.50;;
11514;SDS011;5814;41.936;25.556;2022-12-10T05:16:02;73.40;;;48.80;;
11514;SDS011;5814;41.936;25.556;2022-12-10T05:18:29;59.13;;;38.03;;
11514;SDS011;5814;41.936;25.556;2022-12-10T05:20:58;60.17;;;38.10;;
11514;SDS011;5814;41.936;25.556;2022-12-10T05:23:24;56.47;;;36.93;;
11514;SDS011;5814;41.936;25.556;2022-12-10T05:25:59;59.07;;;38.63;;
11514;SDS011;5814;41.936;25.556;2022-12-10T05:28:26;54.87;;;36.17;;
11514;SDS011;5814;41.936;25.556;2022-12-10T05:30:53;56.47;;;37.37;;
11514;SDS011;5814;41.936;25.556;2022-12-10T05:33:20;54.53;;;37.10;;
11514;SDS011;5814;41.936;25.556;2022-12-10T05:35:58;57.37;;;37.40;;
11514;SDS011;5814;41.936;25.556;2022-12-10T05:38:26;53.37;;;37.37;;
11514;SDS011;5814;41.936;25.556;2022-12-10T05:40:53;51.40;;;35.50;;
11514;SDS011;5814;41.936;25.556;2022-12-10T05:43:20;50.63;;;36.57;;
11514;SDS011;5814;41.936;25.556;2022-12-10T05:45:47;52.07;;;36.37;;
11514;SDS011;5814;41.936;25.556;2022-12-10T05:48:14;54.50;;;38.50;;
11514;SDS011;5814;41.936;25.556;2022-12-10T05:50:42;57.37;;;40.03;;
11514;SDS011;5814;41.936;25.556;2022-12-10T05:53:09;61.90;;;42.77;;
11514;SDS011;5814;41.936;25.556;2022-12-10T05:55:36;58.10;;;40.27;;
11514;SDS011;5814;41.936;25.556;2022-12-10T05:58:03;54.03;;;36.40;;
11514;SDS011;5814;41.936;25.556;2022-12-10T06:00:30;62.60;;;41.93;;
11514;SDS011;5814;41.936;25.556;2022-12-10T06:02:57;57.10;;;36.90;;
11514;SDS011;5814;41.936;25.556;2022-12-10T06:05:24;56.23;;;36.33;;
11514;SDS011;5814;41.936;25.556;2022-12-10T06:07:52;62.30;;;39.80;;
11514;SDS011;5814;41.936;25.556;2022-12-10T06:10:19;69.00;;;43.87;;
11514;SDS011;5814;41.936;25.556;2022-12-10T06:12:46;64.30;;;40.60;;
11514;SDS011;5814;41.936;25.556;2022-12-10T06:15:13;66.87;;;41.13;;
11514;SDS011;5814;41.936;25.556;2022-12-10T06:17:40;67.67;;;42.17;;
11514;SDS011;5814;41.936;25.556;2022-12-10T06:20:08;65.90;;;40.47;;
11514;SDS011;5814;41.936;25.556;2022-12-10T06:22:36;67.97;;;42.57;;
11514;SDS011;5814;41.936;25.556;2022-12-10T06:25:03;65.93;;;41.87;;
11514;SDS011;5814;41.936;25.556;2022-12-10T06:27:32;62.10;;;38.50;;
11514;SDS011;5814;41.936;25.556;2022-12-10T06:29:59;58.70;;;37.60;;
11514;SDS011;5814;41.936;25.556;2022-12-10T06:32:26;61.53;;;39.33;;
11514;SDS011;5814;41.936;25.556;2022-12-10T06:34:53;59.77;;;39.93;;
11514;SDS011;5814;41.936;25.556;2022-12-10T06:37:20;54.60;;;36.13;;
11514;SDS011;5814;41.936;25.556;2022-12-10T06:39:49;53.37;;;36.20;;
11514;SDS011;5814;41.936;25.556;2022-12-10T06:42:14;53.97;;;37.53;;
11514;SDS011;5814;41.936;25.556;2022-12-10T06:44:42;53.43;;;36.07;;
11514;SDS011;5814;41.936;25.556;2022-12-10T06:47:09;50.10;;;33.47;;
11514;SDS011;5814;41.936;25.556;2022-12-10T06:49:36;53.17;;;35.33;;
11514;SDS011;5814;41.936;25.556;2022-12-10T06:52:03;48.60;;;32.80;;
11514;SDS011;5814;41.936;25.556;2022-12-10T06:54:31;50.40;;;35.47;;
11514;SDS011;5814;41.936;25.556;2022-12-10T06:56:58;51.63;;;37.53;;
11514;SDS011;5814;41.936;25.556;2022-12-10T06:59:25;55.50;;;39.00;;
11514;SDS011;5814;41.936;25.556;2022-12-10T07:01:52;55.27;;;38.03;;
11514;SDS011;5814;41.936;25.556;2022-12-10T07:04:19;54.33;;;35.57;;
11514;SDS011;5814;41.936;25.556;2022-12-10T07:06:47;58.57;;;42.50;;
11514;SDS011;5814;41.936;25.556;2022-12-10T07:09:14;60.73;;;38.93;;
11514;SDS011;5814;41.936;25.556;2022-12-10T07:11:41;49.43;;;34.40;;
11514;SDS011;5814;41.936;25.556;2022-12-10T07:14:12;53.23;;;35.53;;
11514;SDS011;5814;41.936;25.556;2022-12-10T07:16:37;53.27;;;35.37;;
11514;SDS011;5814;41.936;25.556;2022-12-10T07:19:04;54.30;;;37.13;;
11514;SDS011;5814;41.936;25.556;2022-12-10T07:21:32;50.23;;;35.23;;
11514;SDS011;5814;41.936;25.556;2022-12-10T07:24:00;53.23;;;37.60;;
11514;SDS011;5814;41.936;25.556;2022-12-10T07:26:28;57.03;;;40.40;;
11514;SDS011;5814;41.936;25.556;2022-12-10T07:28:55;49.90;;;37.40;;
11514;SDS011;5814;41.936;25.556;2022-12-10T07:31:22;52.63;;;36.47;;
11514;SDS011;5814;41.936;25.556;2022-12-10T07:33:50;52.20;;;35.93;;
11514;SDS011;5814;41.936;25.556;2022-12-10T07:36:17;50.60;;;37.77;;
11514;SDS011;5814;41.936;25.556;2022-12-10T07:38:44;51.83;;;37.37;;
11514;SDS011;5814;41.936;25.556;2022-12-10T07:41:12;47.17;;;34.87;;
11514;SDS011;5814;41.936;25.556;2022-12-10T07:43:40;48.23;;;34.27;;
11514;SDS011;5814;41.936;25.556;2022-12-10T07:46:07;48.13;;;35.60;;
11514;SDS011;5814;41.936;25.556;2022-12-10T07:48:37;52.37;;;37.27;;
11514;SDS011;5814;41.936;25.556;2022-12-10T07:51:04;45.53;;;36.07;;
11514;SDS011;5814;41.936;25.556;2022-12-10T07:53:31;55.63;;;40.87;;
11514;SDS011;5814;41.936;25.556;2022-12-10T07:55:59;52.63;;;37.00;;
11514;SDS011;5814;41.936;25.556;2022-12-10T07:58:26;48.57;;;35.83;;
11514;SDS011;5814;41.936;25.556;2022-12-10T08:00:53;59.47;;;39.47;;
11514;SDS011;5814;41.936;25.556;2022-12-10T08:03:20;67.97;;;45.73;;
11514;SDS011;5814;41.936;25.556;2022-12-10T08:05:47;70.10;;;46.67;;
11514;SDS011;5814;41.936;25.556;2022-12-10T08:08:14;62.10;;;41.60;;
11514;SDS011;5814;41.936;25.556;2022-12-10T08:10:42;54.67;;;36.97;;
11514;SDS011;5814;41.936;25.556;2022-12-10T08:13:09;56.90;;;37.63;;
11514;SDS011;5814;41.936;25.556;2022-12-10T08:15:36;64.27;;;42.53;;
11514;SDS011;5814;41.936;25.556;2022-12-10T08:18:03;52.43;;;36.00;;
11514;SDS011;5814;41.936;25.556;2022-12-10T08:20:30;56.17;;;39.00;;
11514;SDS011;5814;41.936;25.556;2022-12-10T08:22:57;58.93;;;39.20;;
11514;SDS011;5814;41.936;25.556;2022-12-10T08:25:25;61.87;;;40.30;;
11514;SDS011;5814;41.936;25.556;2022-12-10T08:27:52;86.07;;;55.87;;
11514;SDS011;5814;41.936;25.556;2022-12-10T08:30:19;73.97;;;47.53;;
11514;SDS011;5814;41.936;25.556;2022-12-10T08:32:46;51.97;;;33.47;;
11514;SDS011;5814;41.936;25.556;2022-12-10T08:35:13;54.13;;;32.23;;
11514;SDS011;5814;41.936;25.556;2022-12-10T08:37:41;38.13;;;24.83;;
11514;SDS011;5814;41.936;25.556;2022-12-10T08:40:08;48.30;;;28.27;;
11514;SDS011;5814;41.936;25.556;2022-12-10T08:42:36;49.73;;;32.40;;
11514;SDS011;5814;41.936;25.556;2022-12-10T08:45:04;41.17;;;28.30;;
11514;SDS011;5814;41.936;25.556;2022-12-10T08:47:32;44.30;;;28.47;;
11514;SDS011;5814;41.936;25.556;2022-12-10T08:49:59;42.57;;;28.47;;
11514;SDS011;5814;41.936;25.556;2022-12-10T08:52:26;44.90;;;32.27;;
11514;SDS011;5814;41.936;25.556;2022-12-10T08:54:54;44.37;;;31.50;;
11514;SDS011;5814;41.936;25.556;2022-12-10T08:57:21;39.87;;;29.60;;
11514;SDS011;5814;41.936;25.556;2022-12-10T08:59:48;47.77;;;32.53;;
11514;SDS011;5814;41.936;25.556;2022-12-10T09:02:15;46.07;;;33.17;;
11514;SDS011;5814;41.936;25.556;2022-12-10T09:04:43;53.03;;;35.03;;
11514;SDS011;5814;41.936;25.556;2022-12-10T09:07:10;55.30;;;36.03;;
11514;SDS011;5814;41.936;25.556;2022-12-10T09:09:37;54.17;;;37.47;;
11514;SDS011;5814;41.936;25.556;2022-12-10T09:12:04;47.03;;;33.57;;
11514;SDS011;5814;41.936;25.556;2022-12-10T09:14:31;45.30;;;31.87;;
11514;SDS011;5814;41.936;25.556;2022-12-10T09:16:59;46.60;;;32.97;;
11514;SDS011;5814;41.936;25.556;2022-12-10T09:19:26;46.97;;;32.33;;
11514;SDS011;5814;41.936;25.556;2022-12-10T09:21:53;64.13;;;36.33;;
11514;SDS011;5814;41.936;25.556;2022-12-10T09:24:20;52.07;;;33.10;;
11514;SDS011;5814;41.936;25.556;2022-12-10T09:26:47;54.20;;;33.50;;
11514;SDS011;5814;41.936;25.556;2022-12-10T09:29:15;39.63;;;29.47;;
11514;SDS011;5814;41.936;25.556;2022-12-10T09:31:42;45.27;;;31.43;;
11514;SDS011;5814;41.936;25.556;2022-12-10T09:34:10;51.30;;;31.77;;
11514;SDS011;5814;41.936;25.556;2022-12-10T09:36:36;48.53;;;30.87;;
11514;SDS011;5814;41.936;25.556;2022-12-10T09:39:03;45.47;;;28.60;;
11514;SDS011;5814;41.936;25.556;2022-12-10T09:45:09;41.30;;;29.80;;
11514;SDS011;5814;41.936;25.556;2022-12-10T09:47:16;42.07;;;29.63;;
11514;SDS011;5814;41.936;25.556;2022-12-10T09:49:47;43.87;;;29.90;;
11514;SDS011;5814;41.936;25.556;2022-12-10T09:52:26;42.00;;;29.17;;
11514;SDS011;5814;41.936;25.556;2022-12-10T09:54:57;48.63;;;31.67;;
11514;SDS011;5814;41.936;25.556;2022-12-10T09:57:27;51.37;;;31.63;;
11514;SDS011;5814;41.936;25.556;2022-12-10T09:59:53;45.27;;;29.83;;
11514;SDS011;5814;41.936;25.556;2022-12-10T10:02:23;50.13;;;29.73;;
11514;SDS011;5814;41.936;25.556;2022-12-10T10:04:50;48.47;;;30.97;;
11514;SDS011;5814;41.936;25.556;2022-12-10T10:07:26;47.13;;;31.47;;
11514;SDS011;5814;41.936;25.556;2022-12-10T10:09:59;48.17;;;29.93;;
11514;SDS011;5814;41.936;25.556;2022-12-10T10:12:27;52.80;;;30.97;;
11514;SDS011;5814;41.936;25.556;2022-12-10T10:14:54;50.60;;;32.17;;
11514;SDS011;5814;41.936;25.556;2022-12-10T10:17:26;50.77;;;32.77;;
11514;SDS011;5814;41.936;25.556;2022-12-10T10:20:05;48.97;;;32.60;;
11514;SDS011;5814;41.936;25.556;2022-12-10T10:22:32;54.57;;;33.57;;
11514;SDS011;5814;41.936;25.556;2022-12-10T10:24:59;58.33;;;37.33;;
11514;SDS011;5814;41.936;25.556;2022-12-10T10:27:28;71.03;;;36.93;;
11514;SDS011;5814;41.936;25.556;2022-12-10T10:29:54;59.07;;;35.47;;
11514;SDS011;5814;41.936;25.556;2022-12-10T10:32:22;65.87;;;36.60;;
11514;SDS011;5814;41.936;25.556;2022-12-10T10:34:53;58.57;;;36.03;;
11514;SDS011;5814;41.936;25.556;2022-12-10T10:37:21;63.80;;;39.17;;
11514;SDS011;5814;41.936;25.556;2022-12-10T10:39:48;70.00;;;38.33;;
11514;SDS011;5814;41.936;25.556;2022-12-10T10:42:21;58.73;;;34.73;;
11514;SDS011;5814;41.936;25.556;2022-12-10T10:44:51;69.17;;;40.03;;
11514;SDS011;5814;41.936;25.556;2022-12-10T10:47:24;71.67;;;37.40;;
11514;SDS011;5814;41.936;25.556;2022-12-10T10:49:50;74.60;;;39.13;;
11514;SDS011;5814;41.936;25.556;2022-12-10T10:52:17;67.83;;;34.83;;
11514;SDS011;5814;41.936;25.556;2022-12-10T10:54:45;79.43;;;38.43;;
11514;SDS011;5814;41.936;25.556;2022-12-10T10:57:14;94.37;;;45.30;;
11514;SDS011;5814;41.936;25.556;2022-12-10T10:59:42;77.77;;;42.53;;
11514;SDS011;5814;41.936;25.556;2022-12-10T11:04:53;67.00;;;36.90;;
11514;SDS011;5814;41.936;25.556;2022-12-10T11:07:23;65.40;;;35.57;;
11514;SDS011;5814;41.936;25.556;2022-12-10T11:10:15;56.67;;;33.30;;
11514;SDS011;5814;41.936;25.556;2022-12-10T11:15:37;63.03;;;34.53;;
11514;SDS011;5814;41.936;25.556;2022-12-10T11:18:19;56.37;;;33.80;;
11514;SDS011;5814;41.936;25.556;2022-12-10T11:20:32;52.60;;;32.40;;
11514;SDS011;5814;41.936;25.556;2022-12-10T11:22:59;56.37;;;31.67;;
11514;SDS011;5814;41.936;25.556;2022-12-10T11:25:30;52.67;;;32.23;;
11514;SDS011;5814;41.936;25.556;2022-12-10T11:27:59;54.93;;;31.93;;
11514;SDS011;5814;41.936;25.556;2022-12-10T11:30:26;53.70;;;31.77;;
11514;SDS011;5814;41.936;25.556;2022-12-10T11:33:06;52.57;;;30.27;;
11514;SDS011;5814;41.936;25.556;2022-12-10T11:35:50;53.47;;;32.37;;
11514;SDS011;5814;41.936;25.556;2022-12-10T11:38:23;55.13;;;34.33;;
11514;SDS011;5814;41.936;25.556;2022-12-10T11:43:45;71.00;;;40.33;;
11514;SDS011;5814;41.936;25.556;2022-12-10T11:49:05;81.60;;;42.17;;
11514;SDS011;5814;41.936;25.556;2022-12-10T11:51:38;70.07;;;39.37;;
11514;SDS011;5814;41.936;25.556;2022-12-10T11:54:07;61.60;;;35.13;;
11514;SDS011;5814;41.936;25.556;2022-12-10T11:56:49;54.47;;;33.87;;
11514;SDS011;5814;41.936;25.556;2022-12-10T12:01:55;53.57;;;34.47;;
11514;SDS011;5814;41.936;25.556;2022-12-10T12:04:26;54.53;;;33.60;;
11514;SDS011;5814;41.936;25.556;2022-12-10T12:07:35;52.90;;;30.70;;
11514;SDS011;5814;41.936;25.556;2022-12-10T12:12:27;49.80;;;31.93;;
11514;SDS011;5814;41.936;25.556;2022-12-10T12:14:55;62.47;;;32.87;;
11514;SDS011;5814;41.936;25.556;2022-12-10T12:17:28;51.87;;;31.93;;
11514;SDS011;5814;41.936;25.556;2022-12-10T12:19:58;46.83;;;30.47;;
11514;SDS011;5814;41.936;25.556;2022-12-10T12:22:27;48.43;;;30.27;;
11514;SDS011;5814;41.936;25.556;2022-12-10T12:24:55;46.13;;;31.20;;
11514;SDS011;5814;41.936;25.556;2022-12-10T12:27:24;44.07;;;31.80;;
11514;SDS011;5814;41.936;25.556;2022-12-10T12:30:00;49.13;;;32.30;;
11514;SDS011;5814;41.936;25.556;2022-12-10T12:32:31;41.13;;;29.03;;
11514;SDS011;5814;41.936;25.556;2022-12-10T12:35:01;44.13;;;30.87;;
11514;SDS011;5814;41.936;25.556;2022-12-10T12:37:29;40.83;;;28.67;;
11514;SDS011;5814;41.936;25.556;2022-12-10T12:42:41;53.67;;;32.77;;
11514;SDS011;5814;41.936;25.556;2022-12-10T12:45:17;44.73;;;30.67;;
11514;SDS011;5814;41.936;25.556;2022-12-10T12:47:51;45.93;;;30.67;;
11514;SDS011;5814;41.936;25.556;2022-12-10T12:50:20;45.93;;;31.27;;
11514;SDS011;5814;41.936;25.556;2022-12-10T12:52:51;29.00;;;18.57;;
11514;SDS011;5814;41.936;25.556;2022-12-10T12:55:19;18.03;;;11.63;;
11514;SDS011;5814;41.936;25.556;2022-12-10T12:57:48;15.30;;;9.73;;
11514;SDS011;5814;41.936;25.556;2022-12-10T13:00:14;10.10;;;8.20;;
11514;SDS011;5814;41.936;25.556;2022-12-10T13:02:51;16.27;;;7.50;;
11514;SDS011;5814;41.936;25.556;2022-12-10T13:05:24;10.77;;;6.62;;
11514;SDS011;5814;41.936;25.556;2022-12-10T13:15:56;12.20;;;5.90;;
11514;SDS011;5814;41.936;25.556;2022-12-10T13:18:40;10.20;;;6.68;;
11514;SDS011;5814;41.936;25.556;2022-12-10T13:23:47;11.05;;;6.07;;
11514;SDS011;5814;41.936;25.556;2022-12-10T13:28:51;16.20;;;6.62;;
11514;SDS011;5814;41.936;25.556;2022-12-10T13:31:19;16.08;;;7.22;;
11514;SDS011;5814;41.936;25.556;2022-12-10T13:33:47;15.20;;;7.47;;
11514;SDS011;5814;41.936;25.556;2022-12-10T13:38:56;14.85;;;6.68;;
11514;SDS011;5814;41.936;25.556;2022-12-10T13:41:23;13.77;;;6.93;;
11514;SDS011;5814;41.936;25.556;2022-12-10T13:43:57;14.02;;;6.25;;
11514;SDS011;5814;41.936;25.556;2022-12-10T13:46:33;9.43;;;5.97;;
11514;SDS011;5814;41.936;25.556;2022-12-10T13:49:00;14.60;;;5.95;;
11514;SDS011;5814;41.936;25.556;2022-12-10T13:51:36;17.70;;;7.03;;
11514;SDS011;5814;41.936;25.556;2022-12-10T13:54:29;12.95;;;6.53;;
11514;SDS011;5814;41.936;25.556;2022-12-10T13:57:34;9.00;;;5.62;;
11514;SDS011;5814;41.936;25.556;2022-12-10T13:59:55;16.17;;;6.97;;
11514;SDS011;5814;41.936;25.556;2022-12-10T14:05:10;7.10;;;5.80;;
11514;SDS011;5814;41.936;25.556;2022-12-10T14:07:34;19.08;;;6.97;;
11514;SDS011;5814;41.936;25.556;2022-12-10T14:10:01;14.27;;;7.62;;
11514;SDS011;5814;41.936;25.556;2022-12-10T14:12:30;19.77;;;8.83;;
11514;SDS011;5814;41.936;25.556;2022-12-10T14:15:00;15.63;;;9.43;;
11514;SDS011;5814;41.936;25.556;2022-12-10T14:17:37;21.93;;;9.87;;
11514;SDS011;5814;41.936;25.556;2022-12-10T14:20:06;13.95;;;8.73;;
11514;SDS011;5814;41.936;25.556;2022-12-10T14:22:38;13.93;;;8.10;;
11514;SDS011;5814;41.936;25.556;2022-12-10T14:25:03;18.27;;;9.13;;
11514;SDS011;5814;41.936;25.556;2022-12-10T14:27:29;18.40;;;9.25;;
11514;SDS011;5814;41.936;25.556;2022-12-10T14:30:00;7.62;;;5.25;;
11514;SDS011;5814;41.936;25.556;2022-12-10T14:32:31;13.23;;;6.97;;
11514;SDS011;5814;41.936;25.556;2022-12-10T14:34:57;12.40;;;7.10;;
11514;SDS011;5814;41.936;25.556;2022-12-10T14:37:25;11.00;;;6.37;;
11514;SDS011;5814;41.936;25.556;2022-12-10T14:39:52;17.30;;;7.27;;
11514;SDS011;5814;41.936;25.556;2022-12-10T14:42:19;18.48;;;7.03;;
11514;SDS011;5814;41.936;25.556;2022-12-10T14:44:46;19.08;;;9.05;;
11514;SDS011;5814;41.936;25.556;2022-12-10T14:47:15;12.13;;;7.00;;
11514;SDS011;5814;41.936;25.556;2022-12-10T14:49:42;10.67;;;7.03;;
11514;SDS011;5814;41.936;25.556;2022-12-10T14:52:12;16.27;;;7.43;;
11514;SDS011;5814;41.936;25.556;2022-12-10T14:54:42;12.87;;;6.90;;
11514;SDS011;5814;41.936;25.556;2022-12-10T14:57:25;13.38;;;7.28;;
11514;SDS011;5814;41.936;25.556;2022-12-10T15:00:07;11.90;;;7.50;;
11514;SDS011;5814;41.936;25.556;2022-12-10T15:02:36;9.90;;;6.90;;
11514;SDS011;5814;41.936;25.556;2022-12-10T15:05:03;15.30;;;7.63;;
11514;SDS011;5814;41.936;25.556;2022-12-10T15:07:33;16.37;;;7.93;;
11514;SDS011;5814;41.936;25.556;2022-12-10T15:09:59;10.33;;;6.53;;
11514;SDS011;5814;41.936;25.556;2022-12-10T15:12:42;16.17;;;7.47;;
11514;SDS011;5814;41.936;25.556;2022-12-10T15:15:42;12.27;;;7.33;;
11514;SDS011;5814;41.936;25.556;2022-12-10T15:17:58;17.10;;;7.10;;